Time;durP1;ratioP1;P1;durP2;ratioP2;P2;SDS_P1;SDS_P2;PMS_P1;PMS_P2;Temp;Humidity;BMP_temperature;BMP_pressure;BME280_temperature;BME280_humidity;BME280_pressure;Samples;Min_cycle;Max_cycle;Signal;HPM_P1;HPM_P2
2022/04/11 00:01:09;;;;;;;10.90;9.18;;;20.50;99.90;;;;;;5018755;28;20395;-81
2022/04/11 00:03:36;;;;;;;9.52;8.10;;;20.60;99.90;;;;;;5012674;28;20477;-81
2022/04/11 00:06:03;;;;;;;9.20;6.93;;;20.60;99.90;;;;;;5012475;28;20387;-84
2022/04/11 00:08:30;;;;;;;7.50;6.30;;;20.70;99.90;;;;;;5012833;28;20885;-81
2022/04/11 00:10:57;;;;;;;7.32;6.50;;;20.90;99.90;;;;;;5012167;28;20379;-84
2022/04/11 00:13:24;;;;;;;8.73;7.10;;;21.00;99.90;;;;;;5012564;28;20387;-82
2022/04/11 00:15:52;;;;;;;8.05;6.72;;;21.10;99.90;;;;;;5014856;28;20372;-83
2022/04/11 00:18:19;;;;;;;7.40;6.45;;;21.10;99.90;;;;;;5048730;28;21324;-84
2022/04/11 00:20:47;;;;;;;7.33;5.40;;;21.20;99.90;;;;;;5051973;28;20388;-80
2022/04/11 00:23:14;;;;;;;7.28;5.63;;;21.40;99.90;;;;;;5051854;28;20786;-82
2022/04/11 00:25:41;;;;;;;7.25;6.03;;;21.80;99.90;;;;;;5051434;28;20459;-83
2022/04/11 00:28:09;;;;;;;6.10;5.50;;;21.90;99.90;;;;;;5050355;28;20412;-83
2022/04/11 00:30:36;;;;;;;6.18;4.88;;;22.00;99.90;;;;;;5051840;28;20372;-82
2022/04/11 00:33:03;;;;;;;5.78;4.40;;;22.10;99.90;;;;;;5051789;28;20954;-84
2022/04/11 00:35:30;;;;;;;5.28;4.22;;;22.50;99.90;;;;;;5046860;28;20382;-82
2022/04/11 00:37:57;;;;;;;6.43;4.50;;;22.60;99.90;;;;;;5031920;28;20400;-80
2022/04/11 00:40:24;;;;;;;5.07;4.30;;;22.70;99.90;;;;;;5034157;28;20423;-83
2022/04/11 00:42:51;;;;;;;6.15;4.30;;;22.80;99.90;;;;;;5051548;28;20709;-83
2022/04/11 00:45:18;;;;;;;7.97;4.10;;;23.00;99.90;;;;;;5038470;28;20377;-85
2022/04/11 00:47:45;;;;;;;5.30;4.80;;;23.10;99.90;;;;;;5031507;28;20394;-82
2022/04/11 00:50:14;;;;;;;5.20;4.65;;;23.30;99.90;;;;;;5031526;28;20372;-82
2022/04/11 00:52:45;;;;;;;6.57;4.80;;;23.50;99.90;;;;;;5031616;28;20389;-82
2022/04/11 00:55:13;;;;;;;4.95;4.43;;;23.70;99.90;;;;;;5032379;28;20369;-82
2022/04/11 00:57:40;;;;;;;7.10;4.63;;;23.60;99.90;;;;;;5030225;28;20391;-81
2022/04/11 01:00:10;;;;;;;6.57;4.70;;;23.40;99.90;;;;;;5051294;28;20380;-81
2022/04/11 01:02:37;;;;;;;7.10;4.78;;;23.50;99.90;;;;;;5048321;28;20478;-84
2022/04/11 01:05:08;;;;;;;5.97;4.47;;;23.60;99.90;;;;;;5031308;28;20941;-83
2022/04/11 01:07:38;;;;;;;5.40;4.00;;;23.80;99.90;;;;;;5031395;28;20734;-82
2022/04/11 01:10:06;;;;;;;6.43;3.85;;;24.20;99.90;;;;;;5026466;28;20861;-85
2022/04/11 01:12:33;;;;;;;4.55;3.60;;;24.50;99.90;;;;;;5029618;28;20476;-84
2022/04/11 01:15:00;;;;;;;3.38;2.90;;;24.80;99.90;;;;;;5029502;28;20417;-84
2022/04/11 01:17:35;;;;;;;3.97;2.20;;;24.80;99.90;;;;;;5015369;28;20391;-85
2022/04/11 01:20:13;;;;;;;4.05;2.20;;;24.60;99.90;;;;;;5030923;28;20380;-84
2022/04/11 01:22:41;;;;;;;4.88;2.65;;;24.60;99.90;;;;;;5031022;28;20459;-86
2022/04/11 01:25:08;;;;;;;2.60;1.95;;;24.80;99.90;;;;;;5031523;28;20413;-80
2022/04/11 01:27:36;;;;;;;4.05;1.80;;;25.10;99.90;;;;;;5033287;28;20382;-85
2022/04/11 01:30:04;;;;;;;3.80;1.90;;;25.70;99.90;;;;;;5024203;28;20406;-83
2022/04/11 01:32:35;;;;;;;2.97;1.80;;;26.10;99.90;;;;;;5018021;28;20497;-85
2022/04/11 01:35:03;;;;;;;2.83;1.90;;;26.70;99.90;;;;;;5011097;28;20887;-83
2022/04/11 01:37:30;;;;;;;3.00;2.10;;;27.10;99.40;;;;;;5011793;28;20473;-83
2022/04/11 01:39:57;;;;;;;3.03;1.98;;;27.50;98.20;;;;;;5023354;28;20391;-83
2022/04/11 01:42:24;;;;;;;2.80;1.75;;;28.20;98.00;;;;;;5022188;28;20411;-84
2022/04/11 01:44:50;;;;;;;2.43;1.80;;;28.70;94.00;;;;;;5021666;28;20449;-85
2022/04/11 01:47:18;;;;;;;2.40;1.67;;;28.60;95.60;;;;;;5025387;28;20900;-83
2022/04/11 01:49:45;;;;;;;2.77;1.63;;;28.80;90.00;;;;;;5022626;28;20394;-83
2022/04/11 01:52:12;;;;;;;2.75;1.90;;;29.20;89.80;;;;;;5028126;28;20393;-83
2022/04/11 01:54:39;;;;;;;2.10;1.52;;;29.50;90.40;;;;;;5014257;28;20407;-80
2022/04/11 01:57:06;;;;;;;2.03;1.67;;;29.70;90.60;;;;;;5009523;28;20838;-85
2022/04/11 01:59:33;;;;;;;2.25;1.60;;;30.20;84.00;;;;;;5011600;28;20716;-83
2022/04/11 02:02:00;;;;;;;3.40;1.80;;;30.40;79.60;;;;;;5016849;28;20784;-81
2022/04/11 02:04:30;;;;;;;4.13;1.80;;;30.50;80.50;;;;;;5030536;28;20389;-83
2022/04/11 02:06:56;;;;;;;1.63;1.50;;;31.00;77.70;;;;;;5029708;28;20420;-81
2022/04/11 02:09:23;;;;;;;1.60;1.50;;;31.10;73.30;;;;;;5028884;28;20741;-81
2022/04/11 02:11:50;;;;;;;2.78;1.30;;;30.90;75.10;;;;;;5030302;28;20469;-82
2022/04/11 02:14:17;;;;;;;1.60;1.27;;;30.80;73.40;;;;;;5030297;28;20393;-83
2022/04/11 02:16:44;;;;;;;1.25;1.10;;;30.70;70.30;;;;;;5030240;28;20386;-83
2022/04/11 02:19:11;;;;;;;2.05;1.20;;;30.80;68.70;;;;;;5030372;28;20412;-81
2022/04/11 02:21:38;;;;;;;2.58;1.27;;;29.90;71.00;;;;;;5030081;28;20382;-84
2022/04/11 02:24:06;;;;;;;3.40;1.20;;;29.40;74.50;;;;;;5030344;28;20405;-83
2022/04/11 02:26:33;;;;;;;1.95;1.10;;;29.40;75.90;;;;;;5029964;28;20389;-82
2022/04/11 02:29:00;;;;;;;3.05;1.27;;;29.90;72.90;;;;;;5030136;28;20401;-88
2022/04/11 02:31:27;;;;;;;2.47;1.05;;;30.10;74.10;;;;;;5025902;28;20398;-85
2022/04/11 02:33:54;;;;;;;2.87;1.13;;;30.50;71.60;;;;;;5010691;28;20387;-85
2022/04/11 02:36:20;;;;;;;2.78;1.20;;;31.50;69.70;;;;;;5010528;28;20375;-85
2022/04/11 02:38:47;;;;;;;2.10;1.30;;;32.20;65.90;;;;;;5010361;28;20371;-85
2022/04/11 02:41:14;;;;;;;2.27;1.20;;;32.00;64.20;;;;;;5011309;28;21049;-85
2022/04/11 02:43:41;;;;;;;1.80;1.23;;;31.70;64.60;;;;;;5011835;28;20411;-85
2022/04/11 02:46:08;;;;;;;0.65;0.60;;;31.70;64.10;;;;;;5023640;28;20866;-84
2022/04/11 02:48:36;;;;;;;2.73;0.60;;;31.20;59.30;;;;;;5029049;28;20488;-86
2022/04/11 02:51:03;;;;;;;0.82;0.70;;;31.50;59.00;;;;;;5020503;28;20394;-86
2022/04/11 02:53:30;;;;;;;1.25;0.60;;;31.20;59.40;;;;;;5023178;28;20381;-86
2022/04/11 02:55:57;;;;;;;1.20;0.52;;;30.60;59.50;;;;;;5030086;28;20463;-86
2022/04/11 02:58:24;;;;;;;0.73;0.60;;;30.20;60.50;;;;;;5030146;28;20845;-85
2022/04/11 03:00:50;;;;;;;1.20;0.80;;;29.60;62.00;;;;;;5030144;28;20384;-86
2022/04/11 03:03:17;;;;;;;0.97;0.60;;;30.00;62.10;;;;;;5020441;28;20411;-86
2022/04/11 03:05:44;;;;;;;1.42;0.63;;;30.80;61.90;;;;;;5010663;28;21125;-85
2022/04/11 03:08:11;;;;;;;1.33;0.60;;;31.60;59.50;;;;;;5010207;28;20376;-84
2022/04/11 03:10:38;;;;;;;1.40;0.60;;;31.50;58.40;;;;;;5009972;28;20379;-86
2022/04/11 03:13:05;;;;;;;1.15;0.73;;;31.10;59.60;;;;;;5024359;28;20404;-86
2022/04/11 03:15:33;;;;;;;3.15;0.80;;;31.00;60.50;;;;;;5028826;28;20386;-86
2022/04/11 03:18:00;;;;;;;1.20;0.60;;;31.50;58.70;;;;;;5029914;28;20404;-85
2022/04/11 03:20:26;;;;;;;1.00;0.68;;;31.40;57.20;;;;;;5029988;28;20436;-84
2022/04/11 03:22:53;;;;;;;1.88;0.80;;;32.20;57.00;;;;;;5020377;28;20411;-84
2022/04/11 03:25:20;;;;;;;2.40;0.77;;;32.30;56.50;;;;;;5027131;28;20873;-86
2022/04/11 03:27:49;;;;;;;1.08;0.60;;;32.30;55.60;;;;;;5031397;28;20389;-86
2022/04/11 03:30:16;;;;;;;1.88;0.80;;;32.30;55.20;;;;;;5032975;28;20439;-84
2022/04/11 03:32:43;;;;;;;1.45;0.68;;;32.30;55.60;;;;;;5033114;28;20939;-85
2022/04/11 03:35:10;;;;;;;4.47;0.80;;;32.40;54.70;;;;;;5033079;28;20393;-85
2022/04/11 03:37:37;;;;;;;4.90;0.88;;;33.60;52.90;;;;;;5033020;28;20381;-84
2022/04/11 03:40:06;;;;;;;6.37;1.07;;;33.90;51.10;;;;;;5032852;28;20374;-84
2022/04/11 03:42:34;;;;;;;3.28;0.77;;;34.30;50.30;;;;;;5033048;28;20742;-85
2022/04/11 03:45:01;;;;;;;1.47;0.60;;;33.90;50.60;;;;;;5033030;28;20370;-85
2022/04/11 03:47:27;;;;;;;1.48;0.60;;;33.90;51.20;;;;;;5032719;28;20397;-84
2022/04/11 03:49:54;;;;;;;2.00;0.70;;;33.40;51.80;;;;;;5033131;28;20388;-84
2022/04/11 03:52:21;;;;;;;4.20;0.90;;;33.50;52.30;;;;;;5032770;28;20380;-84
2022/04/11 03:54:48;;;;;;;1.33;0.70;;;33.70;52.50;;;;;;5031819;28;20390;-85
2022/04/11 03:57:15;;;;;;;1.98;0.68;;;34.40;50.00;;;;;;5031320;28;20459;-84
2022/04/11 03:59:42;;;;;;;0.60;0.60;;;33.70;50.00;;;;;;5032250;28;20468;-85
2022/04/11 04:02:09;;;;;;;1.88;0.70;;;32.60;53.80;;;;;;5022089;28;20397;-85
2022/04/11 04:04:36;;;;;;;3.97;0.88;;;32.60;54.00;;;;;;5028934;28;20397;-86
2022/04/11 04:07:03;;;;;;;3.55;0.80;;;32.80;53.70;;;;;;5032332;28;20385;-85
2022/04/11 04:09:30;;;;;;;4.18;0.75;;;33.30;52.40;;;;;;5032357;28;20390;-86
2022/04/11 04:11:57;;;;;;;1.17;0.70;;;33.40;53.30;;;;;;5032673;28;20838;-85
2022/04/11 04:14:24;;;;;;;3.38;0.80;;;32.90;53.20;;;;;;5029936;28;20754;-89
2022/04/11 04:16:51;;;;;;;6.47;0.98;;;33.10;53.70;;;;;;5032043;28;20478;-84
2022/04/11 04:19:18;;;;;;;9.05;1.00;;;32.70;54.60;;;;;;5031446;28;20420;-84
2022/04/11 04:21:45;;;;;;;1.45;0.70;;;33.60;54.20;;;;;;5032392;28;20854;-84
2022/04/11 04:24:12;;;;;;;0.65;0.50;;;33.80;51.90;;;;;;5031670;28;20912;-87
2022/04/11 04:26:39;;;;;;;2.30;0.70;;;33.30;52.50;;;;;;5031504;28;20433;-84
2022/04/11 04:29:06;;;;;;;1.80;0.60;;;33.00;54.70;;;;;;5022948;28;20417;-84
2022/04/11 04:31:34;;;;;;;4.15;0.75;;;32.70;53.90;;;;;;5031181;28;20480;-82
2022/04/11 04:34:01;;;;;;;3.43;0.70;;;32.20;55.30;;;;;;5021895;28;20500;-83
2022/04/11 04:36:28;;;;;;;1.75;0.80;;;32.60;54.90;;;;;;5031194;28;20381;-84
2022/04/11 04:38:54;;;;;;;1.40;0.70;;;32.50;54.10;;;;;;5031773;28;20391;-84
2022/04/11 04:41:21;;;;;;;1.30;0.70;;;32.70;53.60;;;;;;5031578;28;20391;-84
2022/04/11 04:43:48;;;;;;;2.17;0.73;;;32.80;54.40;;;;;;5013290;28;20861;-84
2022/04/11 04:46:15;;;;;;;0.60;0.50;;;33.10;53.30;;;;;;5030702;28;20420;-85
2022/04/11 04:48:42;;;;;;;1.10;0.57;;;33.60;52.50;;;;;;5026602;28;20447;-84
2022/04/11 04:51:10;;;;;;;1.90;0.60;;;33.70;53.20;;;;;;5031294;28;20456;-85
2022/04/11 04:53:37;;;;;;;1.37;0.67;;;33.30;53.30;;;;;;5020584;28;20397;-84
2022/04/11 04:56:05;;;;;;;1.13;0.60;;;33.70;53.10;;;;;;5031640;28;20365;-84
2022/04/11 04:58:32;;;;;;;0.98;0.60;;;33.50;52.40;;;;;;5031489;28;20404;-85
2022/04/11 05:00:59;;;;;;;1.40;0.50;;;32.70;53.80;;;;;;5029566;28;20389;-84
2022/04/11 05:03:26;;;;;;;2.03;0.70;;;33.10;53.80;;;;;;5023213;28;20409;-83
2022/04/11 05:05:54;;;;;;;1.00;0.50;;;33.30;54.60;;;;;;5031128;28;20468;-84
2022/04/11 05:08:21;;;;;;;3.00;0.70;;;34.40;52.50;;;;;;5031209;28;20376;-90
2022/04/11 05:10:48;;;;;;;2.20;0.80;;;35.10;50.10;;;;;;5030823;28;20392;-84
2022/04/11 05:13:15;;;;;;;1.65;0.60;;;35.30;50.10;;;;;;5029700;28;20885;-85
2022/04/11 05:15:46;;;;;;;1.20;0.70;;;34.60;51.30;;;;;;5022431;28;20413;-84
2022/04/11 05:18:15;;;;;;;1.98;0.60;;;34.50;50.70;;;;;;5011725;28;20562;-85
2022/04/11 05:20:43;;;;;;;3.20;0.70;;;33.70;52.30;;;;;;5014333;28;20479;-86
2022/04/11 05:23:10;;;;;;;3.08;0.60;;;33.40;51.90;;;;;;5028383;28;20412;-83
2022/04/11 05:25:37;;;;;;;3.15;0.80;;;32.90;52.90;;;;;;5026296;28;20383;-84
2022/04/11 05:28:04;;;;;;;3.08;1.10;;;33.00;55.40;;;;;;5011199;28;20441;-86
2022/04/11 05:30:35;;;;;;;2.63;1.00;;;32.80;56.90;;;;;;5010858;28;20390;-83
2022/04/11 05:33:03;;;;;;;3.47;1.23;;;32.00;57.90;;;;;;5011419;28;20383;-82
2022/04/11 05:35:30;;;;;;;3.30;1.42;;;31.20;60.20;;;;;;5011309;28;20429;-83
2022/04/11 05:37:57;;;;;;;4.15;1.40;;;30.30;61.90;;;;;;5016467;28;20464;-84
2022/04/11 05:40:24;;;;;;;6.78;1.33;;;29.70;63.60;;;;;;5030688;28;20916;-83
2022/04/11 05:42:51;;;;;;;3.28;1.17;;;29.30;64.80;;;;;;5030637;28;20439;-83
2022/04/11 05:45:18;;;;;;;4.07;1.50;;;28.90;66.10;;;;;;5030343;28;20468;-85
2022/04/11 05:47:44;;;;;;;3.25;1.30;;;28.90;65.90;;;;;;5024141;28;20407;-85
2022/04/11 05:50:11;;;;;;;3.75;1.30;;;28.80;66.10;;;;;;5010972;28;20917;-85
2022/04/11 05:52:39;;;;;;;1.88;1.17;;;28.40;67.30;;;;;;5010875;28;20478;-82
2022/04/11 05:55:06;;;;;;;4.50;1.33;;;27.90;68.10;;;;;;4993312;28;20430;-83
2022/04/11 05:57:33;;;;;;;1.83;1.20;;;27.50;69.70;;;;;;5012428;28;20385;-77
2022/04/11 06:00:00;;;;;;;3.85;1.38;;;27.10;71.20;;;;;;5010657;28;20398;-84
2022/04/11 06:02:27;;;;;;;3.35;1.10;;;26.80;73.00;;;;;;5023453;28;20429;-86
2022/04/11 06:04:54;;;;;;;2.67;1.20;;;26.40;74.90;;;;;;5028340;28;20400;-84
2022/04/11 06:07:23;;;;;;;3.30;1.08;;;26.10;76.70;;;;;;5022423;28;20488;-85
2022/04/11 06:09:50;;;;;;;2.33;1.23;;;25.90;77.20;;;;;;5018379;28;20875;-85
2022/04/11 06:12:17;;;;;;;2.60;1.13;;;25.70;79.00;;;;;;4993079;28;20474;-85
2022/04/11 06:14:44;;;;;;;4.27;1.20;;;25.50;79.50;;;;;;5010387;28;20390;-83
2022/04/11 06:17:11;;;;;;;3.17;1.20;;;25.30;82.00;;;;;;5018381;28;20421;-85
2022/04/11 06:19:38;;;;;;;3.63;1.10;;;25.20;83.20;;;;;;5030225;28;20424;-84
2022/04/11 06:22:05;;;;;;;3.55;1.00;;;25.10;82.70;;;;;;5030032;28;20436;-85
2022/04/11 06:24:32;;;;;;;2.80;1.05;;;25.00;82.50;;;;;;5036337;28;20391;-83
2022/04/11 06:26:59;;;;;;;2.15;1.00;;;25.00;80.40;;;;;;5050128;28;20364;-83
2022/04/11 06:29:25;;;;;;;2.10;1.30;;;25.00;80.30;;;;;;5049930;28;20422;-86
2022/04/11 06:31:52;;;;;;;3.33;1.30;;;24.90;79.60;;;;;;5042492;28;20388;-81
2022/04/11 06:34:19;;;;;;;3.03;1.20;;;24.90;80.90;;;;;;5011462;28;20425;-82
2022/04/11 06:36:46;;;;;;;2.47;1.30;;;24.80;80.10;;;;;;5017287;28;20386;-81
2022/04/11 06:39:13;;;;;;;4.28;1.15;;;24.90;80.40;;;;;;5030253;28;20388;-84
2022/04/11 06:41:40;;;;;;;4.65;1.50;;;25.00;80.40;;;;;;5030399;28;20425;-83
2022/04/11 06:44:07;;;;;;;3.05;1.20;;;25.00;80.90;;;;;;5029748;28;20441;-83
2022/04/11 06:46:34;;;;;;;4.10;1.50;;;25.00;82.10;;;;;;5021877;28;20391;-83
2022/04/11 06:49:01;;;;;;;4.05;1.55;;;24.90;82.70;;;;;;5010257;28;20450;-81
2022/04/11 06:51:28;;;;;;;4.28;1.35;;;24.80;85.30;;;;;;5010343;28;20878;-83
2022/04/11 06:53:55;;;;;;;5.95;1.60;;;24.60;88.60;;;;;;5012318;28;20383;-85
2022/04/11 06:56:22;;;;;;;4.22;1.55;;;24.50;90.90;;;;;;5014935;28;20502;-81
2022/04/11 06:58:49;;;;;;;5.60;1.80;;;24.50;93.60;;;;;;5013943;28;20450;-86
2022/04/11 07:01:16;;;;;;;4.27;1.70;;;24.40;95.50;;;;;;5027815;28;20773;-84
2022/04/11 07:03:46;;;;;;;7.93;2.00;;;24.30;97.30;;;;;;5013828;28;20492;-83
2022/04/11 07:06:13;;;;;;;5.10;1.60;;;24.10;98.70;;;;;;5033540;28;20365;-86
2022/04/11 07:08:40;;;;;;;5.43;1.70;;;23.90;99.90;;;;;;5033503;28;20746;-86
2022/04/11 07:11:07;;;;;;;4.57;1.55;;;23.80;99.90;;;;;;5033093;28;20879;-85
2022/04/11 07:13:35;;;;;;;7.47;1.75;;;23.50;99.90;;;;;;5020861;28;20395;-82
2022/04/11 07:16:03;;;;;;;4.97;1.80;;;23.40;99.90;;;;;;5021675;28;20444;-83
2022/04/11 07:18:31;;;;;;;5.95;2.05;;;23.20;99.90;;;;;;5017018;28;20740;-86
2022/04/11 07:20:58;;;;;;;5.40;1.90;;;23.10;99.90;;;;;;5017387;28;20391;-85
2022/04/11 07:23:25;;;;;;;6.68;1.90;;;23.00;99.90;;;;;;5013795;28;20895;-83
2022/04/11 07:25:52;;;;;;;7.20;2.20;;;22.90;99.90;;;;;;5026676;28;20535;-84
2022/04/11 07:28:19;;;;;;;5.35;2.08;;;22.70;99.90;;;;;;5024130;28;20398;-83
2022/04/11 07:30:46;;;;;;;10.90;2.70;;;22.70;99.90;;;;;;5022363;28;20378;-85
2022/04/11 07:33:13;;;;;;;10.52;2.83;;;22.70;99.90;;;;;;5028951;28;20403;-82
2022/04/11 07:35:40;;;;;;;13.95;3.20;;;22.60;99.90;;;;;;5023850;28;20387;-85
2022/04/11 07:38:08;;;;;;;12.85;3.10;;;22.60;99.90;;;;;;5014863;28;20398;-83
2022/04/11 07:40:34;;;;;;;9.88;3.25;;;22.50;99.90;;;;;;5017053;28;20387;-85
2022/04/11 07:43:01;;;;;;;10.98;3.28;;;22.40;99.90;;;;;;5013187;28;20414;-84
2022/04/11 07:45:29;;;;;;;10.52;3.30;;;22.30;99.90;;;;;;5013020;28;20466;-85
2022/04/11 07:47:56;;;;;;;14.82;3.58;;;22.30;99.90;;;;;;5013221;28;20395;-88
2022/04/11 07:50:23;;;;;;;14.63;3.72;;;22.30;99.90;;;;;;5013060;28;20415;-85
2022/04/11 07:52:50;;;;;;;11.02;3.72;;;22.30;99.90;;;;;;5025890;28;20791;-86
2022/04/11 07:55:17;;;;;;;13.63;3.88;;;22.30;99.90;;;;;;5032633;28;20741;-85
2022/04/11 07:57:44;;;;;;;15.55;4.93;;;22.30;99.90;;;;;;5030538;28;20390;-83
2022/04/11 08:00:12;;;;;;;16.33;4.65;;;22.30;99.90;;;;;;5029235;28;20389;-87
2022/04/11 08:02:39;;;;;;;18.60;4.88;;;22.30;99.90;;;;;;5032664;28;20446;-85
2022/04/11 08:05:07;;;;;;;16.98;5.10;;;22.30;99.90;;;;;;5031253;28;20400;-88
2022/04/11 08:07:35;;;;;;;19.70;5.45;;;22.30;99.90;;;;;;5031284;28;20388;-86
2022/04/11 08:10:03;;;;;;;19.60;6.13;;;22.40;99.90;;;;;;5032079;28;20393;-83
2022/04/11 08:12:30;;;;;;;18.83;6.20;;;22.40;99.90;;;;;;5023458;28;20786;-86
2022/04/11 08:14:57;;;;;;;21.08;6.95;;;22.30;99.90;;;;;;5032459;28;20427;-90
2022/04/11 08:17:25;;;;;;;22.17;6.72;;;22.30;99.90;;;;;;5031509;28;20723;-84
2022/04/11 08:19:52;;;;;;;25.05;7.50;;;22.30;99.90;;;;;;5025293;28;20390;-86
2022/04/11 08:22:19;;;;;;;20.98;7.28;;;22.20;99.90;;;;;;5012552;28;20438;-86
2022/04/11 08:24:46;;;;;;;22.40;7.50;;;22.20;99.90;;;;;;5012253;28;20413;-85
2022/04/11 08:27:13;;;;;;;21.65;7.47;;;22.20;99.90;;;;;;5013904;28;20712;-83
2022/04/11 08:29:40;;;;;;;21.90;7.65;;;22.20;99.90;;;;;;5020349;28;20379;-83
2022/04/11 08:32:07;;;;;;;27.73;8.00;;;22.20;99.90;;;;;;5014335;28;20747;-83
2022/04/11 08:34:34;;;;;;;24.20;7.85;;;22.10;99.90;;;;;;5012734;28;20426;-84
2022/04/11 08:37:01;;;;;;;22.42;7.93;;;22.20;99.90;;;;;;5012168;28;20399;-85
2022/04/11 08:39:28;;;;;;;24.58;8.43;;;22.10;99.90;;;;;;5024675;28;20389;-83
2022/04/11 08:42:01;;;;;;;25.08;8.57;;;22.00;99.90;;;;;;5031261;28;20769;-84
2022/04/11 08:44:28;;;;;;;25.13;8.60;;;21.90;99.90;;;;;;5019570;28;20395;-83
2022/04/11 08:47:01;;;;;;;23.48;8.25;;;21.80;99.90;;;;;;5023458;28;20879;-86
2022/04/11 08:49:30;;;;;;;26.15;8.32;;;21.70;99.90;;;;;;5015220;28;20406;-85
2022/04/11 08:51:57;;;;;;;26.23;8.55;;;21.60;99.90;;;;;;5011803;28;20375;-85
2022/04/11 08:54:24;;;;;;;26.40;8.30;;;21.50;99.90;;;;;;5012421;28;20395;-83
2022/04/11 08:56:51;;;;;;;27.77;8.48;;;21.40;99.90;;;;;;5030007;28;20381;-92
2022/04/11 08:59:18;;;;;;;29.73;8.45;;;21.30;99.90;;;;;;5017862;28;20413;-86
2022/04/11 09:01:45;;;;;;;23.88;7.82;;;21.20;99.90;;;;;;5016754;28;20413;-88
2022/04/11 09:04:12;;;;;;;27.65;7.80;;;21.10;99.90;;;;;;5024214;28;20409;-85
2022/04/11 09:06:41;;;;;;;27.77;8.10;;;21.10;99.90;;;;;;5011942;28;20376;-85
2022/04/11 09:09:10;;;;;;;28.87;8.00;;;21.00;99.90;;;;;;5022414;28;20383;-84
2022/04/11 09:11:38;;;;;;;28.27;7.68;;;21.00;99.90;;;;;;5011699;28;20379;-83
2022/04/11 09:14:07;;;;;;;28.40;7.43;;;21.00;99.90;;;;;;5012941;28;20388;-85
2022/04/11 09:16:51;;;;;;;27.05;8.02;;;21.00;99.90;;;;;;5017947;28;20397;-82
2022/04/11 09:19:26;;;;;;;22.48;7.60;;;21.00;99.90;;;;;;5018999;28;20391;-84
2022/04/11 09:21:54;;;;;;;25.23;7.55;;;21.00;99.90;;;;;;5017510;28;20391;-81
2022/04/11 09:24:22;;;;;;;21.97;7.53;;;21.00;99.90;;;;;;5022397;28;20405;-85
2022/04/11 09:26:54;;;;;;;21.60;7.70;;;21.00;99.90;;;;;;5011546;28;21133;-84
2022/04/11 09:29:23;;;;;;;25.85;7.82;;;21.00;99.90;;;;;;5013086;28;20411;-85
2022/04/11 09:31:50;;;;;;;25.35;7.95;;;21.00;99.90;;;;;;5013075;28;20410;-84
2022/04/11 09:34:27;;;;;;;24.02;7.38;;;21.00;99.90;;;;;;5029959;28;20843;-86
2022/04/11 09:37:01;;;;;;;22.25;7.50;;;21.00;99.90;;;;;;5024672;28;20421;-86
2022/04/11 09:39:33;;;;;;;21.40;6.60;;;21.00;99.90;;;;;;5011297;28;20386;-87
2022/04/11 09:42:03;;;;;;;24.25;7.35;;;20.90;99.90;;;;;;4993625;28;20456;-84
2022/04/11 09:44:32;;;;;;;24.00;7.10;;;20.90;99.90;;;;;;5011167;28;20411;-84
2022/04/11 09:47:03;;;;;;;22.53;7.30;;;20.90;99.90;;;;;;5012910;28;20397;-84
2022/04/11 09:49:30;;;;;;;22.15;6.63;;;20.90;99.90;;;;;;5021833;28;20386;-87
2022/04/11 09:52:08;;;;;;;23.38;7.00;;;20.80;99.90;;;;;;5011691;28;20409;-85
2022/04/11 09:54:37;;;;;;;26.43;6.83;;;20.80;99.90;;;;;;5014433;28;20478;-84
2022/04/11 09:57:06;;;;;;;24.33;6.80;;;20.90;99.90;;;;;;5019238;28;20375;-82
2022/04/11 09:59:34;;;;;;;32.30;8.13;;;20.90;99.90;;;;;;5011086;28;20391;-86
2022/04/11 10:02:01;;;;;;;26.52;7.93;;;20.90;99.90;;;;;;5017337;28;20449;-84
2022/04/11 10:04:29;;;;;;;24.05;7.38;;;20.90;99.90;;;;;;5013296;28;20403;-83
2022/04/11 10:06:57;;;;;;;22.73;7.35;;;20.90;99.90;;;;;;5023384;28;20402;-83
2022/04/11 10:09:25;;;;;;;22.42;7.05;;;20.90;99.90;;;;;;5010461;28;20407;-87
2022/04/11 10:11:53;;;;;;;32.30;7.68;;;20.90;99.90;;;;;;5010728;28;20386;-87
2022/04/11 10:14:28;;;;;;;30.88;7.25;;;20.80;99.90;;;;;;5010756;28;20391;-84
2022/04/11 10:17:00;;;;;;;30.65;7.00;;;20.80;99.90;;;;;;5010841;28;20894;-84
2022/04/11 10:19:33;;;;;;;24.53;6.90;;;20.80;99.90;;;;;;5010409;28;20387;-84
2022/04/11 10:22:05;;;;;;;27.10;7.07;;;20.80;99.90;;;;;;5024653;28;20475;-87
2022/04/11 10:24:56;;;;;;;25.15;6.88;;;20.80;99.90;;;;;;5016663;28;20409;-83
2022/04/11 10:27:27;;;;;;;26.15;7.25;;;20.80;99.90;;;;;;5022360;28;20401;-84
2022/04/11 10:29:56;;;;;;;26.83;6.82;;;20.70;99.90;;;;;;5034075;28;20461;-85
2022/04/11 10:32:24;;;;;;;24.85;6.45;;;20.70;99.90;;;;;;5031811;28;20412;-85
2022/04/11 10:34:51;;;;;;;25.70;6.50;;;20.70;99.90;;;;;;5025144;28;20383;-86
2022/04/11 10:37:26;;;;;;;25.45;6.85;;;20.70;99.90;;;;;;5015075;28;20395;-81
2022/04/11 10:40:14;;;;;;;23.38;6.05;;;20.60;99.90;;;;;;5014424;28;20743;-85
2022/04/11 10:43:01;;;;;;;23.55;6.15;;;20.60;99.90;;;;;;5014031;28;20398;-85
2022/04/11 10:45:45;;;;;;;22.52;6.43;;;20.60;99.90;;;;;;5014264;28;20778;-82
2022/04/11 10:48:14;;;;;;;22.15;5.93;;;20.50;99.90;;;;;;5016253;28;20398;-87
2022/04/11 10:50:45;;;;;;;21.30;6.20;;;20.50;99.90;;;;;;5020777;28;20430;-81
2022/04/11 10:53:13;;;;;;;21.13;6.00;;;20.50;99.90;;;;;;5014561;28;20456;-84
2022/04/11 10:55:59;;;;;;;21.42;6.18;;;20.50;99.90;;;;;;5028909;28;20752;-85
2022/04/11 10:58:49;;;;;;;23.10;5.85;;;20.50;99.90;;;;;;5014400;28;20384;-82
2022/04/11 11:01:49;;;;;;;18.07;6.00;;;20.50;99.90;;;;;;5025441;28;20421;-87
2022/04/11 11:04:18;;;;;;;24.27;6.25;;;20.50;99.90;;;;;;5033451;28;20408;-84
2022/04/11 11:06:45;;;;;;;23.25;6.18;;;20.50;99.90;;;;;;5022658;28;20395;-88
2022/04/11 11:09:19;;;;;;;21.42;6.10;;;20.50;99.90;;;;;;5015108;28;20387;-83
2022/04/11 11:11:48;;;;;;;23.25;6.32;;;20.50;99.90;;;;;;5026459;28;20745;-83
2022/04/11 11:14:40;;;;;;;24.40;5.80;;;20.50;99.90;;;;;;5024561;28;20478;-84
2022/04/11 11:17:08;;;;;;;24.70;6.13;;;20.50;99.90;;;;;;5013571;28;20379;-80
2022/04/11 11:20:08;;;;;;;24.48;6.28;;;20.50;99.90;;;;;;5031805;28;20934;-85
2022/04/11 11:23:13;;;;;;;23.00;6.30;;;20.50;99.90;;;;;;4972078;28;20414;-84
2022/04/11 11:25:40;;;;;;;25.33;6.70;;;20.50;99.90;;;;;;4932941;29;20414;-86
2022/04/11 11:28:11;;;;;;;32.38;7.30;;;20.50;99.90;;;;;;4937142;29;20739;-80
2022/04/11 11:30:39;;;;;;;25.70;6.60;;;20.50;99.90;;;;;;4942754;29;20497;-84
2022/04/11 11:33:11;;;;;;;25.50;6.30;;;20.40;99.90;;;;;;4933409;29;20398;-83
2022/04/11 11:35:53;;;;;;;28.63;6.43;;;20.40;99.90;;;;;;4933760;29;20394;-82
2022/04/11 11:38:27;;;;;;;27.23;6.82;;;20.40;99.90;;;;;;4933852;29;20393;-85
2022/04/11 11:40:59;;;;;;;26.25;6.90;;;20.40;99.90;;;;;;4925776;29;20392;-84
2022/04/11 11:43:29;;;;;;;26.98;6.45;;;20.40;99.90;;;;;;4916386;29;20490;-82
2022/04/11 11:46:00;;;;;;;25.33;6.18;;;20.40;99.90;;;;;;4926950;29;20409;-80
2022/04/11 11:48:29;;;;;;;26.30;6.70;;;20.40;99.90;;;;;;4928430;29;20899;-82
2022/04/11 11:50:59;;;;;;;27.48;6.80;;;20.30;99.90;;;;;;4914540;29;20391;-85
2022/04/11 11:53:52;;;;;;;28.07;7.00;;;20.40;99.90;;;;;;4914202;29;20400;-83
2022/04/11 11:56:19;;;;;;;31.33;7.07;;;20.40;99.90;;;;;;4922235;29;20754;-84
2022/04/11 11:58:48;;;;;;;23.38;6.50;;;20.30;99.90;;;;;;4942027;29;20571;-83
2022/04/11 12:01:15;;;;;;;24.70;6.78;;;20.30;99.90;;;;;;4932987;28;20398;-82
2022/04/11 12:06:34;;;;;;;22.80;7.10;;;20.20;99.90;;;;;;4993356;28;20868;-82
2022/04/11 12:09:03;;;;;;;22.20;7.05;;;20.20;99.90;;;;;;5004236;28;20391;-82
2022/04/11 12:11:31;;;;;;;24.63;6.80;;;20.20;99.90;;;;;;5020847;28;20462;-82
2022/04/11 12:14:03;;;;;;;24.30;6.63;;;20.20;99.90;;;;;;5012620;28;20391;-82
2022/04/11 12:16:31;;;;;;;25.40;7.10;;;20.10;99.90;;;;;;5031402;28;20435;-83
2022/04/11 12:19:00;;;;;;;22.05;7.18;;;19.90;99.90;;;;;;5032403;28;20385;-84
2022/04/11 12:21:31;;;;;;;21.70;6.70;;;19.80;99.90;;;;;;5018848;28;20385;-82
2022/04/11 12:23:59;;;;;;;22.52;7.05;;;19.80;99.90;;;;;;4992995;28;20765;-82
2022/04/11 12:26:36;;;;;;;27.10;7.10;;;19.70;99.90;;;;;;4995713;28;20399;-84
2022/04/11 12:29:11;;;;;;;21.17;7.10;;;19.60;99.90;;;;;;5020724;28;20496;-83
2022/04/11 12:31:39;;;;;;;25.65;7.43;;;19.50;99.90;;;;;;5032005;28;20462;-83
2022/04/11 12:34:15;;;;;;;26.35;7.47;;;19.50;99.90;;;;;;5032000;28;20381;-84
2022/04/11 12:37:00;;;;;;;29.15;8.68;;;19.50;99.90;;;;;;5019868;28;20379;-81
2022/04/11 12:39:27;;;;;;;22.75;7.40;;;19.50;99.90;;;;;;5012479;28;20433;-82
2022/04/11 12:41:55;;;;;;;23.77;7.20;;;19.50;99.90;;;;;;5010734;28;20476;-82
2022/04/11 12:44:36;;;;;;;20.40;6.60;;;19.60;99.90;;;;;;5010541;28;20407;-85
2022/04/11 12:47:03;;;;;;;22.20;6.90;;;19.70;99.90;;;;;;5006089;28;20403;-84
2022/04/11 12:49:49;;;;;;;22.67;7.15;;;19.70;99.90;;;;;;5013209;28;20909;-83
2022/04/11 12:52:19;;;;;;;27.83;7.53;;;19.80;99.90;;;;;;5024603;28;20873;-83
2022/04/11 12:54:51;;;;;;;24.17;7.78;;;19.80;99.90;;;;;;5013587;28;20394;-81